sensor_id;sensor_type;location;lat;lon;timestamp;pressure;altitude;pressure_sealevel;temperature
65290;BMP180;51893;59.754;10.110;2023-04-26T00:00:06;100414.00;;;3.30
65290;BMP180;51893;59.754;10.110;2023-04-26T00:02:58;100419.80;;;3.30
65290;BMP180;51893;59.754;10.110;2023-04-26T00:05:34;100419.20;;;3.30
65290;BMP180;51893;59.754;10.110;2023-04-26T00:08:04;100424.20;;;3.30
65290;BMP180;51893;59.754;10.110;2023-04-26T00:10:34;100423.60;;;3.30
65290;BMP180;51893;59.754;10.110;2023-04-26T00:13:02;100422.80;;;3.20
65290;BMP180;51893;59.754;10.110;2023-04-26T00:15:31;100421.60;;;3.20
65290;BMP180;51893;59.754;10.110;2023-04-26T00:18:04;100418.40;;;3.20
65290;BMP180;51893;59.754;10.110;2023-04-26T00:20:32;100423.20;;;3.10
65290;BMP180;51893;59.754;10.110;2023-04-26T00:23:00;100421.40;;;3.04
65290;BMP180;51893;59.754;10.110;2023-04-26T00:25:33;100424.00;;;3.00
65290;BMP180;51893;59.754;10.110;2023-04-26T00:28:03;100427.00;;;3.00
65290;BMP180;51893;59.754;10.110;2023-04-26T00:30:34;100423.00;;;2.90
65290;BMP180;51893;59.754;10.110;2023-04-26T00:33:04;100430.60;;;2.90
65290;BMP180;51893;59.754;10.110;2023-04-26T00:35:36;100429.40;;;2.90
65290;BMP180;51893;59.754;10.110;2023-04-26T00:38:08;100427.80;;;2.90
65290;BMP180;51893;59.754;10.110;2023-04-26T00:40:36;100426.60;;;2.90
65290;BMP180;51893;59.754;10.110;2023-04-26T00:43:05;100426.40;;;2.90
65290;BMP180;51893;59.754;10.110;2023-04-26T00:45:34;100426.80;;;2.90
65290;BMP180;51893;59.754;10.110;2023-04-26T00:48:07;100424.40;;;2.80
65290;BMP180;51893;59.754;10.110;2023-04-26T00:50:36;100427.40;;;2.80
65290;BMP180;51893;59.754;10.110;2023-04-26T00:53:06;100424.80;;;2.80
65290;BMP180;51893;59.754;10.110;2023-04-26T00:55:42;100431.80;;;2.84
65290;BMP180;51893;59.754;10.110;2023-04-26T00:58:11;100428.40;;;2.90
65290;BMP180;51893;59.754;10.110;2023-04-26T01:00:39;100431.80;;;2.90
65290;BMP180;51893;59.754;10.110;2023-04-26T01:03:08;100421.00;;;2.94
65290;BMP180;51893;59.754;10.110;2023-04-26T01:05:39;100418.00;;;2.96
65290;BMP180;51893;59.754;10.110;2023-04-26T01:08:08;100426.00;;;2.90
65290;BMP180;51893;59.754;10.110;2023-04-26T01:10:38;100419.00;;;2.90
65290;BMP180;51893;59.754;10.110;2023-04-26T01:13:06;100419.20;;;3.00
65290;BMP180;51893;59.754;10.110;2023-04-26T01:15:35;100423.60;;;3.00
65290;BMP180;51893;59.754;10.110;2023-04-26T01:18:05;100423.80;;;3.00
65290;BMP180;51893;59.754;10.110;2023-04-26T01:20:35;100426.20;;;3.10
65290;BMP180;51893;59.754;10.110;2023-04-26T01:23:04;100427.60;;;3.08
65290;BMP180;51893;59.754;10.110;2023-04-26T01:25:34;100423.60;;;3.00
65290;BMP180;51893;59.754;10.110;2023-04-26T01:28:02;100434.60;;;3.00
65290;BMP180;51893;59.754;10.110;2023-04-26T01:30:40;100427.40;;;3.00
65290;BMP180;51893;59.754;10.110;2023-04-26T01:33:08;100422.80;;;2.90
65290;BMP180;51893;59.754;10.110;2023-04-26T01:35:37;100432.80;;;2.90
65290;BMP180;51893;59.754;10.110;2023-04-26T01:38:06;100429.40;;;2.90
65290;BMP180;51893;59.754;10.110;2023-04-26T01:40:35;100431.60;;;2.90
65290;BMP180;51893;59.754;10.110;2023-04-26T01:43:03;100422.00;;;2.90
65290;BMP180;51893;59.754;10.110;2023-04-26T01:45:32;100423.60;;;2.92
65290;BMP180;51893;59.754;10.110;2023-04-26T01:48:01;100420.60;;;3.00
65290;BMP180;51893;59.754;10.110;2023-04-26T01:50:29;100426.20;;;3.00
65290;BMP180;51893;59.754;10.110;2023-04-26T01:53:02;100430.00;;;3.00
65290;BMP180;51893;59.754;10.110;2023-04-26T01:55:33;100431.40;;;3.00
65290;BMP180;51893;59.754;10.110;2023-04-26T01:58:01;100431.80;;;3.00
65290;BMP180;51893;59.754;10.110;2023-04-26T02:00:29;100428.00;;;3.00
65290;BMP180;51893;59.754;10.110;2023-04-26T02:02:57;100434.20;;;3.00
65290;BMP180;51893;59.754;10.110;2023-04-26T02:05:26;100439.20;;;3.00
65290;BMP180;51893;59.754;10.110;2023-04-26T02:07:55;100436.40;;;3.00
65290;BMP180;51893;59.754;10.110;2023-04-26T02:10:24;100434.00;;;3.00
65290;BMP180;51893;59.754;10.110;2023-04-26T02:12:52;100428.20;;;3.00
65290;BMP180;51893;59.754;10.110;2023-04-26T02:15:20;100427.20;;;3.00
65290;BMP180;51893;59.754;10.110;2023-04-26T02:17:51;100430.60;;;3.00
65290;BMP180;51893;59.754;10.110;2023-04-26T02:20:20;100438.40;;;3.00
65290;BMP180;51893;59.754;10.110;2023-04-26T02:22:48;100435.20;;;3.00
65290;BMP180;51893;59.754;10.110;2023-04-26T02:25:16;100441.40;;;3.00
65290;BMP180;51893;59.754;10.110;2023-04-26T02:27:44;100439.00;;;3.00
65290;BMP180;51893;59.754;10.110;2023-04-26T02:30:13;100433.80;;;3.00
65290;BMP180;51893;59.754;10.110;2023-04-26T02:32:41;100433.80;;;3.08
65290;BMP180;51893;59.754;10.110;2023-04-26T02:35:11;100440.80;;;3.10
65290;BMP180;51893;59.754;10.110;2023-04-26T02:37:39;100437.00;;;3.10
65290;BMP180;51893;59.754;10.110;2023-04-26T02:40:10;100443.20;;;3.20
65290;BMP180;51893;59.754;10.110;2023-04-26T02:42:48;100445.00;;;3.20
65290;BMP180;51893;59.754;10.110;2023-04-26T02:45:20;100444.40;;;3.20
65290;BMP180;51893;59.754;10.110;2023-04-26T02:47:49;100441.80;;;3.20
65290;BMP180;51893;59.754;10.110;2023-04-26T02:50:18;100441.00;;;3.20
65290;BMP180;51893;59.754;10.110;2023-04-26T02:52:46;100439.40;;;3.20
65290;BMP180;51893;59.754;10.110;2023-04-26T02:55:14;100445.00;;;3.20
65290;BMP180;51893;59.754;10.110;2023-04-26T02:57:42;100444.40;;;3.20
65290;BMP180;51893;59.754;10.110;2023-04-26T03:00:12;100440.40;;;3.22
65290;BMP180;51893;59.754;10.110;2023-04-26T03:02:42;100445.00;;;3.30
65290;BMP180;51893;59.754;10.110;2023-04-26T03:05:11;100446.80;;;3.30
65290;BMP180;51893;59.754;10.110;2023-04-26T03:07:44;100451.20;;;3.30
65290;BMP180;51893;59.754;10.110;2023-04-26T03:10:13;100448.00;;;3.30
65290;BMP180;51893;59.754;10.110;2023-04-26T03:12:41;100448.40;;;3.30
65290;BMP180;51893;59.754;10.110;2023-04-26T03:15:12;100446.80;;;3.30
65290;BMP180;51893;59.754;10.110;2023-04-26T03:17:40;100451.40;;;3.20
65290;BMP180;51893;59.754;10.110;2023-04-26T03:20:10;100447.40;;;3.20
65290;BMP180;51893;59.754;10.110;2023-04-26T03:22:39;100452.20;;;3.20
65290;BMP180;51893;59.754;10.110;2023-04-26T03:25:10;100455.60;;;3.14
65290;BMP180;51893;59.754;10.110;2023-04-26T03:27:38;100454.40;;;3.10
65290;BMP180;51893;59.754;10.110;2023-04-26T03:30:07;100454.20;;;3.10
65290;BMP180;51893;59.754;10.110;2023-04-26T03:32:35;100451.40;;;3.10
65290;BMP180;51893;59.754;10.110;2023-04-26T03:35:04;100449.20;;;3.10
65290;BMP180;51893;59.754;10.110;2023-04-26T03:37:32;100451.40;;;3.10
65290;BMP180;51893;59.754;10.110;2023-04-26T03:39:59;100451.80;;;3.06
65290;BMP180;51893;59.754;10.110;2023-04-26T03:42:29;100445.00;;;3.10
65290;BMP180;51893;59.754;10.110;2023-04-26T03:44:57;100445.40;;;3.10
65290;BMP180;51893;59.754;10.110;2023-04-26T03:47:25;100443.80;;;3.10
65290;BMP180;51893;59.754;10.110;2023-04-26T03:49:54;100441.60;;;3.00
65290;BMP180;51893;59.754;10.110;2023-04-26T03:52:22;100444.00;;;3.00
65290;BMP180;51893;59.754;10.110;2023-04-26T03:54:52;100444.40;;;3.00
65290;BMP180;51893;59.754;10.110;2023-04-26T03:57:20;100446.80;;;3.00
65290;BMP180;51893;59.754;10.110;2023-04-26T03:59:49;100448.40;;;3.00
65290;BMP180;51893;59.754;10.110;2023-04-26T04:02:19;100446.00;;;3.00
65290;BMP180;51893;59.754;10.110;2023-04-26T04:04:47;100447.40;;;3.00
65290;BMP180;51893;59.754;10.110;2023-04-26T04:07:16;100443.20;;;3.00
65290;BMP180;51893;59.754;10.110;2023-04-26T04:09:45;100444.40;;;3.00
65290;BMP180;51893;59.754;10.110;2023-04-26T04:12:13;100445.40;;;3.00
65290;BMP180;51893;59.754;10.110;2023-04-26T04:14:42;100446.60;;;3.00
65290;BMP180;51893;59.754;10.110;2023-04-26T04:17:10;100443.80;;;3.00
65290;BMP180;51893;59.754;10.110;2023-04-26T04:19:38;100447.40;;;3.00
65290;BMP180;51893;59.754;10.110;2023-04-26T04:22:06;100441.60;;;3.00
65290;BMP180;51893;59.754;10.110;2023-04-26T04:24:34;100453.20;;;3.00
65290;BMP180;51893;59.754;10.110;2023-04-26T04:27:03;100454.00;;;3.00
65290;BMP180;51893;59.754;10.110;2023-04-26T04:29:33;100449.60;;;3.00
65290;BMP180;51893;59.754;10.110;2023-04-26T04:32:01;100449.80;;;3.00
65290;BMP180;51893;59.754;10.110;2023-04-26T04:34:33;100457.80;;;3.00
65290;BMP180;51893;59.754;10.110;2023-04-26T04:37:03;100455.80;;;3.00
65290;BMP180;51893;59.754;10.110;2023-04-26T04:39:31;100458.20;;;3.00
65290;BMP180;51893;59.754;10.110;2023-04-26T04:41:58;100456.00;;;3.02
65290;BMP180;51893;59.754;10.110;2023-04-26T04:44:27;100458.00;;;3.10
65290;BMP180;51893;59.754;10.110;2023-04-26T04:46:58;100463.40;;;3.20
65290;BMP180;51893;59.754;10.110;2023-04-26T04:49:29;100461.00;;;3.20
65290;BMP180;51893;59.754;10.110;2023-04-26T04:51:58;100465.00;;;3.20
65290;BMP180;51893;59.754;10.110;2023-04-26T04:54:27;100469.40;;;3.30
65290;BMP180;51893;59.754;10.110;2023-04-26T04:56:55;100469.20;;;3.30
65290;BMP180;51893;59.754;10.110;2023-04-26T04:59:25;100470.00;;;3.30
65290;BMP180;51893;59.754;10.110;2023-04-26T05:01:55;100473.20;;;3.30
65290;BMP180;51893;59.754;10.110;2023-04-26T05:04:23;100468.40;;;3.30
65290;BMP180;51893;59.754;10.110;2023-04-26T05:06:52;100472.40;;;3.30
65290;BMP180;51893;59.754;10.110;2023-04-26T05:09:20;100474.60;;;3.30
65290;BMP180;51893;59.754;10.110;2023-04-26T05:11:48;100478.20;;;3.30
65290;BMP180;51893;59.754;10.110;2023-04-26T05:14:16;100483.80;;;3.40
65290;BMP180;51893;59.754;10.110;2023-04-26T05:16:44;100485.20;;;3.40
65290;BMP180;51893;59.754;10.110;2023-04-26T05:19:12;100489.80;;;3.40
65290;BMP180;51893;59.754;10.110;2023-04-26T05:21:41;100489.80;;;3.40
65290;BMP180;51893;59.754;10.110;2023-04-26T05:24:09;100496.40;;;3.40
65290;BMP180;51893;59.754;10.110;2023-04-26T05:26:37;100500.60;;;3.40
65290;BMP180;51893;59.754;10.110;2023-04-26T05:29:06;100498.60;;;3.40
65290;BMP180;51893;59.754;10.110;2023-04-26T05:31:34;100501.00;;;3.40
65290;BMP180;51893;59.754;10.110;2023-04-26T05:34:03;100499.80;;;3.40
65290;BMP180;51893;59.754;10.110;2023-04-26T05:36:31;100496.60;;;3.40
65290;BMP180;51893;59.754;10.110;2023-04-26T05:38:59;100500.80;;;3.42
65290;BMP180;51893;59.754;10.110;2023-04-26T05:41:27;100498.80;;;3.50
65290;BMP180;51893;59.754;10.110;2023-04-26T05:43:55;100504.60;;;3.60
65290;BMP180;51893;59.754;10.110;2023-04-26T05:46:24;100505.60;;;3.70
65290;BMP180;51893;59.754;10.110;2023-04-26T05:48:52;100508.20;;;3.70
65290;BMP180;51893;59.754;10.110;2023-04-26T05:51:23;100512.80;;;3.80
65290;BMP180;51893;59.754;10.110;2023-04-26T05:53:51;100506.00;;;3.80
65290;BMP180;51893;59.754;10.110;2023-04-26T05:56:19;100508.80;;;3.80
65290;BMP180;51893;59.754;10.110;2023-04-26T05:58:48;100508.40;;;3.90
65290;BMP180;51893;59.754;10.110;2023-04-26T06:01:17;100517.60;;;3.90
65290;BMP180;51893;59.754;10.110;2023-04-26T06:03:45;100516.20;;;3.90
65290;BMP180;51893;59.754;10.110;2023-04-26T06:06:14;100518.80;;;3.90
65290;BMP180;51893;59.754;10.110;2023-04-26T06:08:45;100521.60;;;3.90
65290;BMP180;51893;59.754;10.110;2023-04-26T06:11:13;100520.20;;;3.92
65290;BMP180;51893;59.754;10.110;2023-04-26T06:13:41;100514.40;;;4.00
65290;BMP180;51893;59.754;10.110;2023-04-26T06:16:09;100520.00;;;4.10
65290;BMP180;51893;59.754;10.110;2023-04-26T06:18:39;100529.20;;;4.20
65290;BMP180;51893;59.754;10.110;2023-04-26T06:21:08;100528.40;;;4.30
65290;BMP180;51893;59.754;10.110;2023-04-26T06:23:36;100533.40;;;4.40
65290;BMP180;51893;59.754;10.110;2023-04-26T06:26:04;100535.80;;;4.50
65290;BMP180;51893;59.754;10.110;2023-04-26T06:28:32;100535.40;;;4.60
65290;BMP180;51893;59.754;10.110;2023-04-26T06:31:00;100530.80;;;4.70
65290;BMP180;51893;59.754;10.110;2023-04-26T06:33:28;100534.20;;;4.70
65290;BMP180;51893;59.754;10.110;2023-04-26T06:35:56;100539.20;;;4.80
65290;BMP180;51893;59.754;10.110;2023-04-26T06:38:27;100542.20;;;4.80
65290;BMP180;51893;59.754;10.110;2023-04-26T06:40:55;100541.20;;;4.90
65290;BMP180;51893;59.754;10.110;2023-04-26T06:43:25;100540.00;;;4.90
65290;BMP180;51893;59.754;10.110;2023-04-26T06:45:54;100549.20;;;4.80
65290;BMP180;51893;59.754;10.110;2023-04-26T06:48:24;100552.20;;;4.72
65290;BMP180;51893;59.754;10.110;2023-04-26T06:50:53;100556.00;;;4.70
65290;BMP180;51893;59.754;10.110;2023-04-26T06:53:22;100555.80;;;4.70
65290;BMP180;51893;59.754;10.110;2023-04-26T06:55:50;100565.00;;;4.70
65290;BMP180;51893;59.754;10.110;2023-04-26T06:58:20;100567.20;;;4.70
65290;BMP180;51893;59.754;10.110;2023-04-26T07:00:49;100569.60;;;4.70
65290;BMP180;51893;59.754;10.110;2023-04-26T07:03:17;100573.00;;;4.70
65290;BMP180;51893;59.754;10.110;2023-04-26T07:05:46;100563.40;;;4.70
65290;BMP180;51893;59.754;10.110;2023-04-26T07:08:16;100573.20;;;4.82
65290;BMP180;51893;59.754;10.110;2023-04-26T07:10:47;100571.40;;;4.90
65290;BMP180;51893;59.754;10.110;2023-04-26T07:13:15;100572.80;;;5.00
65290;BMP180;51893;59.754;10.110;2023-04-26T07:15:45;100575.40;;;5.10
65290;BMP180;51893;59.754;10.110;2023-04-26T07:18:13;100580.00;;;5.10
65290;BMP180;51893;59.754;10.110;2023-04-26T07:20:41;100587.00;;;5.10
65290;BMP180;51893;59.754;10.110;2023-04-26T07:23:09;100590.60;;;5.10
65290;BMP180;51893;59.754;10.110;2023-04-26T07:25:37;100580.80;;;5.10
65290;BMP180;51893;59.754;10.110;2023-04-26T07:28:06;100586.60;;;5.20
65290;BMP180;51893;59.754;10.110;2023-04-26T07:30:35;100589.00;;;5.20
65290;BMP180;51893;59.754;10.110;2023-04-26T07:33:03;100587.00;;;5.30
65290;BMP180;51893;59.754;10.110;2023-04-26T07:35:34;100600.40;;;5.34
65290;BMP180;51893;59.754;10.110;2023-04-26T07:38:05;100587.60;;;5.40
65290;BMP180;51893;59.754;10.110;2023-04-26T07:40:35;100593.40;;;5.50
65290;BMP180;51893;59.754;10.110;2023-04-26T07:43:03;100590.40;;;5.60
65290;BMP180;51893;59.754;10.110;2023-04-26T07:45:33;100597.00;;;5.70
65290;BMP180;51893;59.754;10.110;2023-04-26T07:48:03;100600.80;;;5.70
65290;BMP180;51893;59.754;10.110;2023-04-26T07:50:31;100606.00;;;5.70
65290;BMP180;51893;59.754;10.110;2023-04-26T07:53:00;100610.40;;;5.70
65290;BMP180;51893;59.754;10.110;2023-04-26T07:55:28;100610.40;;;5.80
65290;BMP180;51893;59.754;10.110;2023-04-26T07:57:56;100611.00;;;5.88
65290;BMP180;51893;59.754;10.110;2023-04-26T08:00:24;100613.40;;;6.00
65290;BMP180;51893;59.754;10.110;2023-04-26T08:02:54;100607.60;;;6.16
65290;BMP180;51893;59.754;10.110;2023-04-26T08:05:22;100610.00;;;6.20
65290;BMP180;51893;59.754;10.110;2023-04-26T08:07:54;100608.80;;;6.30
65290;BMP180;51893;59.754;10.110;2023-04-26T08:10:23;100608.80;;;6.30
65290;BMP180;51893;59.754;10.110;2023-04-26T08:12:52;100609.60;;;6.40
65290;BMP180;51893;59.754;10.110;2023-04-26T08:15:20;100615.20;;;6.50
65290;BMP180;51893;59.754;10.110;2023-04-26T08:17:51;100623.40;;;6.50
65290;BMP180;51893;59.754;10.110;2023-04-26T08:20:21;100628.20;;;6.50
65290;BMP180;51893;59.754;10.110;2023-04-26T08:22:55;100629.20;;;6.60
65290;BMP180;51893;59.754;10.110;2023-04-26T08:25:25;100629.60;;;6.70
65290;BMP180;51893;59.754;10.110;2023-04-26T08:27:54;100628.60;;;6.70
65290;BMP180;51893;59.754;10.110;2023-04-26T08:30:24;100635.60;;;6.70
65290;BMP180;51893;59.754;10.110;2023-04-26T08:32:53;100643.00;;;6.80
65290;BMP180;51893;59.754;10.110;2023-04-26T08:35:21;100645.00;;;6.80
65290;BMP180;51893;59.754;10.110;2023-04-26T08:37:50;100648.60;;;6.80
65290;BMP180;51893;59.754;10.110;2023-04-26T08:40:22;100653.40;;;6.80
65290;BMP180;51893;59.754;10.110;2023-04-26T08:43:01;100653.80;;;6.70
65290;BMP180;51893;59.754;10.110;2023-04-26T08:45:33;100649.20;;;6.80
65290;BMP180;51893;59.754;10.110;2023-04-26T08:48:10;100652.20;;;7.00
65290;BMP180;51893;59.754;10.110;2023-04-26T08:50:44;100657.80;;;7.10
65290;BMP180;51893;59.754;10.110;2023-04-26T08:53:16;100654.20;;;7.10
65290;BMP180;51893;59.754;10.110;2023-04-26T08:55:52;100661.60;;;7.06
65290;BMP180;51893;59.754;10.110;2023-04-26T08:58:22;100664.80;;;7.00
65290;BMP180;51893;59.754;10.110;2023-04-26T09:00:51;100671.80;;;6.98
65290;BMP180;51893;59.754;10.110;2023-04-26T09:03:22;100666.40;;;6.92
65290;BMP180;51893;59.754;10.110;2023-04-26T09:05:54;100675.40;;;6.82
65290;BMP180;51893;59.754;10.110;2023-04-26T09:08:23;100673.40;;;6.70
65290;BMP180;51893;59.754;10.110;2023-04-26T09:10:58;100681.00;;;6.70
65290;BMP180;51893;59.754;10.110;2023-04-26T09:13:28;100678.00;;;6.70
65290;BMP180;51893;59.754;10.110;2023-04-26T09:16:00;100680.60;;;6.70
65290;BMP180;51893;59.754;10.110;2023-04-26T09:18:32;100672.40;;;6.70
65290;BMP180;51893;59.754;10.110;2023-04-26T09:21:07;100669.40;;;6.82
65290;BMP180;51893;59.754;10.110;2023-04-26T09:23:57;100668.00;;;6.98
65290;BMP180;51893;59.754;10.110;2023-04-26T09:26:27;100661.60;;;7.20
65290;BMP180;51893;59.754;10.110;2023-04-26T09:29:16;100661.80;;;7.40
65290;BMP180;51893;59.754;10.110;2023-04-26T09:31:47;100665.40;;;7.40
65290;BMP180;51893;59.754;10.110;2023-04-26T09:34:21;100669.20;;;7.60
65290;BMP180;51893;59.754;10.110;2023-04-26T09:36:56;100667.00;;;7.70
65290;BMP180;51893;59.754;10.110;2023-04-26T09:39:40;100670.40;;;7.82
65290;BMP180;51893;59.754;10.110;2023-04-26T09:42:09;100669.60;;;8.00
65290;BMP180;51893;59.754;10.110;2023-04-26T09:44:38;100669.80;;;8.02
65290;BMP180;51893;59.754;10.110;2023-04-26T09:47:09;100674.00;;;8.00
65290;BMP180;51893;59.754;10.110;2023-04-26T09:49:50;100676.20;;;8.00
65290;BMP180;51893;59.754;10.110;2023-04-26T09:52:20;100676.80;;;8.02
65290;BMP180;51893;59.754;10.110;2023-04-26T09:54:51;100676.00;;;8.10
65290;BMP180;51893;59.754;10.110;2023-04-26T09:57:21;100682.00;;;8.10
65290;BMP180;51893;59.754;10.110;2023-04-26T09:59:52;100682.00;;;8.00
65290;BMP180;51893;59.754;10.110;2023-04-26T10:02:25;100696.60;;;7.80
65290;BMP180;51893;59.754;10.110;2023-04-26T10:04:56;100686.80;;;7.60
65290;BMP180;51893;59.754;10.110;2023-04-26T10:07:29;100686.00;;;7.40
65290;BMP180;51893;59.754;10.110;2023-04-26T10:10:00;100690.00;;;7.38
65290;BMP180;51893;59.754;10.110;2023-04-26T10:12:31;100693.80;;;7.20
65290;BMP180;51893;59.754;10.110;2023-04-26T10:15:02;100686.20;;;7.26
65290;BMP180;51893;59.754;10.110;2023-04-26T10:17:31;100682.80;;;7.20
65290;BMP180;51893;59.754;10.110;2023-04-26T10:20:01;100678.60;;;7.20
65290;BMP180;51893;59.754;10.110;2023-04-26T10:22:39;100676.80;;;7.20
65290;BMP180;51893;59.754;10.110;2023-04-26T10:25:12;100674.00;;;7.30
65290;BMP180;51893;59.754;10.110;2023-04-26T10:27:50;100682.00;;;7.40
65290;BMP180;51893;59.754;10.110;2023-04-26T10:30:24;100677.40;;;7.50
65290;BMP180;51893;59.754;10.110;2023-04-26T10:35:30;100677.20;;;7.60
65290;BMP180;51893;59.754;10.110;2023-04-26T10:40:40;100679.00;;;7.80
65290;BMP180;51893;59.754;10.110;2023-04-26T10:45:46;100678.40;;;7.80
65290;BMP180;51893;59.754;10.110;2023-04-26T10:48:23;100677.80;;;7.80
65290;BMP180;51893;59.754;10.110;2023-04-26T10:59:14;100667.00;;;7.40
65290;BMP180;51893;59.754;10.110;2023-04-26T11:02:10;100685.40;;;7.40
65290;BMP180;51893;59.754;10.110;2023-04-26T11:04:51;100668.80;;;7.40
65290;BMP180;51893;59.754;10.110;2023-04-26T11:08:03;100669.40;;;7.50
65290;BMP180;51893;59.754;10.110;2023-04-26T11:10:37;100678.00;;;7.70
65290;BMP180;51893;59.754;10.110;2023-04-26T11:13:06;100670.40;;;7.80
65290;BMP180;51893;59.754;10.110;2023-04-26T11:15:35;100667.00;;;7.90
65290;BMP180;51893;59.754;10.110;2023-04-26T11:18:04;100668.00;;;8.00
65290;BMP180;51893;59.754;10.110;2023-04-26T11:20:33;100665.40;;;8.10
65290;BMP180;51893;59.754;10.110;2023-04-26T11:23:07;100663.80;;;8.20
65290;BMP180;51893;59.754;10.110;2023-04-26T11:25:38;100661.40;;;8.20
65290;BMP180;51893;59.754;10.110;2023-04-26T11:28:07;100661.20;;;8.30
65290;BMP180;51893;59.754;10.110;2023-04-26T11:30:35;100659.60;;;8.44
65290;BMP180;51893;59.754;10.110;2023-04-26T11:33:04;100660.40;;;8.60
65290;BMP180;51893;59.754;10.110;2023-04-26T11:35:34;100665.40;;;8.70
65290;BMP180;51893;59.754;10.110;2023-04-26T11:38:04;100670.80;;;8.66
65290;BMP180;51893;59.754;10.110;2023-04-26T11:40:32;100674.40;;;8.60
65290;BMP180;51893;59.754;10.110;2023-04-26T11:43:04;100673.80;;;8.50
65290;BMP180;51893;59.754;10.110;2023-04-26T11:45:35;100684.40;;;8.40
65290;BMP180;51893;59.754;10.110;2023-04-26T11:48:08;100688.00;;;8.20
65290;BMP180;51893;59.754;10.110;2023-04-26T11:50:38;100694.40;;;8.08
65290;BMP180;51893;59.754;10.110;2023-04-26T11:53:08;100706.00;;;8.00
65290;BMP180;51893;59.754;10.110;2023-04-26T11:55:38;100712.20;;;7.80
65290;BMP180;51893;59.754;10.110;2023-04-26T11:58:11;100716.00;;;7.60
65290;BMP180;51893;59.754;10.110;2023-04-26T12:00:58;100710.40;;;7.42
65290;BMP180;51893;59.754;10.110;2023-04-26T12:03:34;100686.40;;;7.20
65290;BMP180;51893;59.754;10.110;2023-04-26T12:06:05;100673.40;;;6.90
65290;BMP180;51893;59.754;10.110;2023-04-26T12:08:35;100673.80;;;6.82
65290;BMP180;51893;59.754;10.110;2023-04-26T12:11:03;100671.80;;;6.80
65290;BMP180;51893;59.754;10.110;2023-04-26T12:13:32;100673.20;;;6.90
65290;BMP180;51893;59.754;10.110;2023-04-26T12:16:07;100679.00;;;7.10
65290;BMP180;51893;59.754;10.110;2023-04-26T12:18:55;100689.20;;;7.20
65290;BMP180;51893;59.754;10.110;2023-04-26T12:21:28;100708.80;;;7.14
65290;BMP180;51893;59.754;10.110;2023-04-26T12:23:59;100715.00;;;7.00
65290;BMP180;51893;59.754;10.110;2023-04-26T12:26:43;100716.80;;;6.88
65290;BMP180;51893;59.754;10.110;2023-04-26T12:29:12;100715.60;;;6.90
65290;BMP180;51893;59.754;10.110;2023-04-26T12:31:40;100709.40;;;6.90
65290;BMP180;51893;59.754;10.110;2023-04-26T12:34:09;100704.40;;;6.90
65290;BMP180;51893;59.754;10.110;2023-04-26T12:36:40;100688.40;;;6.90
65290;BMP180;51893;59.754;10.110;2023-04-26T12:39:11;100683.20;;;7.00
65290;BMP180;51893;59.754;10.110;2023-04-26T12:41:42;100680.20;;;7.02
65290;BMP180;51893;59.754;10.110;2023-04-26T12:44:11;100683.20;;;7.12
65290;BMP180;51893;59.754;10.110;2023-04-26T12:46:40;100684.20;;;7.30
65290;BMP180;51893;59.754;10.110;2023-04-26T12:49:09;100678.40;;;7.30
65290;BMP180;51893;59.754;10.110;2023-04-26T12:51:37;100680.20;;;7.40
65290;BMP180;51893;59.754;10.110;2023-04-26T12:54:05;100674.20;;;7.58
65290;BMP180;51893;59.754;10.110;2023-04-26T12:56:35;100676.20;;;7.70
65290;BMP180;51893;59.754;10.110;2023-04-26T12:59:10;100664.00;;;7.98
65290;BMP180;51893;59.754;10.110;2023-04-26T13:01:38;100666.40;;;8.28
65290;BMP180;51893;59.754;10.110;2023-04-26T13:04:06;100665.60;;;8.58
65290;BMP180;51893;59.754;10.110;2023-04-26T13:06:39;100668.20;;;8.80
65290;BMP180;51893;59.754;10.110;2023-04-26T13:09:07;100669.60;;;8.80
65290;BMP180;51893;59.754;10.110;2023-04-26T13:11:36;100678.40;;;8.74
65290;BMP180;51893;59.754;10.110;2023-04-26T13:14:05;100684.40;;;8.80
65290;BMP180;51893;59.754;10.110;2023-04-26T13:16:36;100693.00;;;8.80
65290;BMP180;51893;59.754;10.110;2023-04-26T13:19:09;100704.20;;;8.70
65290;BMP180;51893;59.754;10.110;2023-04-26T13:21:40;100704.40;;;8.50
65290;BMP180;51893;59.754;10.110;2023-04-26T13:24:08;100687.80;;;8.50
65290;BMP180;51893;59.754;10.110;2023-04-26T13:26:39;100695.00;;;8.40
65290;BMP180;51893;59.754;10.110;2023-04-26T13:29:08;100694.00;;;8.30
65290;BMP180;51893;59.754;10.110;2023-04-26T13:31:36;100697.40;;;8.28
65290;BMP180;51893;59.754;10.110;2023-04-26T13:34:04;100702.80;;;8.18
65290;BMP180;51893;59.754;10.110;2023-04-26T13:36:32;100700.20;;;8.20
65290;BMP180;51893;59.754;10.110;2023-04-26T13:39:00;100695.40;;;8.44
65290;BMP180;51893;59.754;10.110;2023-04-26T13:41:34;100696.40;;;8.80
65290;BMP180;51893;59.754;10.110;2023-04-26T13:44:04;100692.60;;;9.10
65290;BMP180;51893;59.754;10.110;2023-04-26T13:46:33;100685.20;;;9.40
65290;BMP180;51893;59.754;10.110;2023-04-26T13:49:03;100684.60;;;9.80
65290;BMP180;51893;59.754;10.110;2023-04-26T13:51:32;100685.60;;;10.00
65290;BMP180;51893;59.754;10.110;2023-04-26T13:54:04;100693.00;;;10.26
65290;BMP180;51893;59.754;10.110;2023-04-26T13:56:33;100697.40;;;10.40
65290;BMP180;51893;59.754;10.110;2023-04-26T13:59:02;100692.20;;;10.60
65290;BMP180;51893;59.754;10.110;2023-04-26T14:01:34;100690.40;;;10.80
65290;BMP180;51893;59.754;10.110;2023-04-26T14:04:03;100700.40;;;10.80
65290;BMP180;51893;59.754;10.110;2023-04-26T14:06:38;100704.60;;;10.64
65290;BMP180;51893;59.754;10.110;2023-04-26T14:09:07;100710.00;;;10.30
65290;BMP180;51893;59.754;10.110;2023-04-26T14:11:36;100707.40;;;9.90
65290;BMP180;51893;59.754;10.110;2023-04-26T14:14:05;100705.00;;;9.60
65290;BMP180;51893;59.754;10.110;2023-04-26T14:16:33;100709.60;;;9.40
65290;BMP180;51893;59.754;10.110;2023-04-26T14:19:03;100706.20;;;9.08
65290;BMP180;51893;59.754;10.110;2023-04-26T14:21:30;100704.00;;;8.70
65290;BMP180;51893;59.754;10.110;2023-04-26T14:23:58;100692.60;;;8.42
65290;BMP180;51893;59.754;10.110;2023-04-26T14:26:26;100693.60;;;8.28
65290;BMP180;51893;59.754;10.110;2023-04-26T14:28:54;100702.00;;;8.06